createdAt,value
2022-08-05T00:00:51.773Z,4.18
2022-08-05T00:03:18.607Z,4.07
2022-08-05T00:06:04.714Z,4.25
2022-08-05T00:08:34.773Z,4.45
2022-08-05T00:11:05.148Z,4.45
2022-08-05T00:13:53.020Z,4.43
2022-08-05T00:16:36.077Z,4.20
2022-08-05T00:19:07.940Z,4.07
2022-08-05T00:21:35.832Z,4.25
2022-08-05T00:24:10.546Z,4.32
2022-08-05T00:26:39.103Z,4.60
2022-08-05T00:29:13.709Z,4.80
2022-08-05T00:31:53.786Z,4.43
2022-08-05T00:34:53.817Z,4.20
2022-08-05T00:37:14.555Z,4.10
2022-08-05T00:39:57.930Z,4.53
2022-08-05T00:42:42.255Z,4.30
2022-08-05T00:45:15.196Z,4.22
2022-08-05T00:47:56.302Z,4.55
2022-08-05T00:50:25.403Z,5.28
2022-08-05T00:52:55.140Z,4.30
2022-08-05T00:55:23.026Z,4.55
2022-08-05T00:58:01.131Z,4.22
2022-08-05T01:00:30.195Z,4.68
2022-08-05T01:02:59.904Z,4.70
2022-08-05T01:05:27.835Z,4.80
2022-08-05T01:08:42.059Z,5.03
2022-08-05T01:10:51.574Z,4.35
2022-08-05T01:13:58.390Z,4.15
2022-08-05T01:16:26.522Z,4.45
2022-08-05T01:19:01.116Z,4.15
2022-08-05T01:21:50.607Z,4.60
2022-08-05T01:24:20.554Z,4.32
2022-08-05T01:26:57.767Z,4.53
2022-08-05T01:29:34.905Z,4.80
2022-08-05T01:32:06.793Z,4.43
2022-08-05T01:34:54.813Z,4.63
2022-08-05T01:37:32.880Z,4.50
2022-08-05T01:40:06.118Z,5.28
2022-08-05T01:42:36.769Z,4.18
2022-08-05T01:45:08.182Z,4.22
2022-08-05T01:47:39.270Z,4.55
2022-08-05T01:50:15.225Z,4.78
2022-08-05T01:52:44.370Z,4.57
2022-08-05T01:55:15.538Z,3.90
2022-08-05T01:58:11.255Z,4.40
2022-08-05T02:00:36.972Z,4.75
2022-08-05T02:03:34.450Z,4.32
2022-08-05T02:06:24.218Z,4.55
2022-08-05T02:08:58.221Z,4.55
2022-08-05T02:11:33.339Z,4.53
2022-08-05T02:14:17.525Z,4.70
2022-08-05T02:16:52.445Z,4.40
2022-08-05T02:19:35.050Z,4.43
2022-08-05T02:22:25.939Z,3.92
2022-08-05T02:25:02.164Z,4.50
2022-08-05T02:27:59.411Z,4.60
2022-08-05T02:30:21.469Z,4.57
2022-08-05T02:32:52.639Z,4.40
2022-08-05T02:35:27.805Z,4.43
2022-08-05T02:38:02.347Z,4.10
2022-08-05T02:40:31.408Z,4.60
2022-08-05T02:43:00.891Z,4.30
2022-08-05T02:45:51.369Z,4.50
2022-08-05T02:48:17.467Z,4.63
2022-08-05T02:50:48.474Z,4.30
2022-08-05T02:53:19.625Z,4.55
2022-08-05T02:55:59.484Z,5.03
2022-08-05T02:58:28.900Z,4.55
2022-08-05T03:01:01.898Z,4.85
2022-08-05T03:03:33.739Z,4.47
2022-08-05T03:06:55.218Z,4.55
2022-08-05T03:09:05.173Z,4.70
2022-08-05T03:11:53.659Z,4.55
2022-08-05T03:14:21.475Z,5.35
2022-08-05T03:16:48.467Z,5.05
2022-08-05T03:19:16.948Z,5.03
2022-08-05T03:22:00.219Z,5.85
2022-08-05T03:24:30.763Z,5.53
2022-08-05T03:26:59.374Z,6.22
2022-08-05T03:29:45.796Z,6.20
2022-08-05T03:32:15.510Z,6.47
2022-08-05T03:34:49.592Z,6.65
2022-08-05T03:37:19.774Z,7.35
2022-08-05T03:40:00.835Z,6.88
2022-08-05T03:42:32.305Z,7.32
2022-08-05T03:45:22.108Z,7.63
2022-08-05T03:47:51.552Z,7.25
2022-08-05T03:50:18.464Z,6.45
2022-08-05T03:55:52.226Z,6.72
2022-08-05T03:56:01.714Z,6.63
2022-08-05T03:58:38.210Z,7.18
2022-08-05T04:01:11.248Z,7.00
2022-08-05T04:04:08.914Z,6.82
2022-08-05T04:06:33.635Z,6.47
2022-08-05T04:09:02.638Z,7.50
2022-08-05T04:11:47.570Z,7.00
2022-08-05T04:14:19.387Z,7.82
2022-08-05T04:16:58.672Z,8.02
2022-08-05T04:19:25.734Z,8.73
2022-08-05T04:22:10.039Z,8.38
2022-08-05T04:24:44.142Z,8.10
2022-08-05T04:27:20.251Z,7.88
2022-08-05T04:29:59.804Z,8.65
2022-08-05T04:32:33.397Z,8.90
2022-08-05T04:35:02.302Z,8.60
2022-08-05T04:38:01.142Z,8.48
2022-08-05T04:40:19.938Z,7.78
2022-08-05T04:42:46.907Z,8.57
2022-08-05T04:45:31.047Z,9.50
2022-08-05T04:48:18.410Z,8.63
2022-08-05T04:51:03.074Z,8.35
2022-08-05T04:53:38.695Z,8.13
2022-08-05T04:56:32.979Z,7.07
2022-08-05T04:58:55.645Z,8.15
2022-08-05T05:02:08.386Z,7.40
2022-08-05T05:04:10.347Z,7.05
2022-08-05T05:06:44.212Z,7.00
2022-08-05T05:09:13.343Z,7.07
2022-08-05T05:11:53.192Z,6.85
2022-08-05T05:14:27.945Z,7.30
2022-08-05T05:17:01.194Z,6.38
2022-08-05T05:19:36.335Z,6.50
2022-08-05T05:22:23.077Z,6.97
2022-08-05T05:24:57.493Z,6.22
2022-08-05T05:27:41.563Z,5.80
2022-08-05T05:30:15.626Z,5.45
2022-08-05T05:33:01.048Z,6.05
2022-08-05T05:35:34.422Z,5.18
2022-08-05T05:38:09.448Z,5.35
2022-08-05T05:40:48.122Z,5.20
2022-08-05T05:43:27.497Z,5.00
2022-08-05T05:46:08.490Z,4.93
2022-08-05T05:48:44.621Z,4.53
2022-08-05T05:51:18.878Z,4.95
2022-08-05T05:53:54.167Z,4.40
2022-08-05T05:56:33.396Z,4.10
2022-08-05T05:59:03.881Z,3.70
2022-08-05T06:01:57.740Z,3.80
2022-08-05T06:04:25.195Z,3.75
2022-08-05T06:06:52.087Z,3.75
2022-08-05T06:09:25.852Z,3.22
2022-08-05T06:12:02.872Z,3.45
2022-08-05T06:14:31.026Z,2.63
2022-08-05T06:16:59.181Z,3.28
2022-08-05T06:19:34.820Z,3.03
2022-08-05T06:22:03.956Z,2.35
2022-08-05T06:24:31.921Z,2.70
2022-08-05T06:26:58.871Z,2.47
2022-08-05T06:29:49.660Z,2.45
2022-08-05T06:32:24.873Z,2.50
2022-08-05T06:34:58.814Z,2.25
2022-08-05T06:37:55.970Z,2.70
2022-08-05T06:40:18.569Z,2.47
2022-08-05T06:42:52.313Z,2.35
2022-08-05T06:46:02.846Z,2.40
2022-08-05T06:48:36.023Z,2.55
2022-08-05T06:50:55.680Z,2.17
2022-08-05T06:53:28.475Z,2.58
2022-08-05T06:55:57.441Z,2.67
2022-08-05T06:58:35.397Z,2.13
2022-08-05T07:01:06.102Z,2.10
2022-08-05T07:03:33.533Z,2.40
2022-08-05T07:06:05.992Z,2.55
2022-08-05T07:08:47.467Z,1.80
2022-08-05T07:11:22.208Z,2.38
2022-08-05T07:14:15.434Z,2.08
2022-08-05T07:17:58.749Z,2.03
2022-08-05T07:20:23.080Z,1.70
2022-08-05T07:22:28.308Z,2.30
2022-08-05T07:25:22.779Z,2.30
2022-08-05T07:27:57.276Z,2.20
2022-08-05T07:30:31.823Z,2.35
2022-08-05T07:33:00.961Z,2.10
2022-08-05T07:36:02.655Z,2.03
2022-08-05T07:38:33.803Z,2.28
2022-08-05T07:42:07.210Z,2.17
2022-08-05T07:43:58.289Z,2.53
2022-08-05T07:46:27.054Z,2.03
2022-08-05T07:49:01.398Z,2.10
2022-08-05T07:51:41.094Z,2.70
2022-08-05T07:54:26.508Z,2.42
2022-08-05T07:57:01.272Z,3.40
2022-08-05T07:59:41.502Z,2.40
2022-08-05T08:02:16.095Z,2.38
2022-08-05T08:04:48.371Z,2.40
2022-08-05T08:07:17.857Z,2.50
2022-08-05T08:09:45.963Z,2.17
2022-08-05T08:12:33.627Z,2.17
2022-08-05T08:15:03.688Z,2.22
2022-08-05T08:17:32.724Z,2.10
2022-08-05T08:20:22.791Z,2.50
2022-08-05T08:22:59.566Z,2.42
2022-08-05T08:25:59.225Z,2.72
2022-08-05T08:28:18.830Z,2.30
2022-08-05T08:31:03.061Z,2.67
2022-08-05T08:33:36.132Z,2.35
2022-08-05T08:36:38.520Z,2.58
2022-08-05T08:38:55.975Z,2.22
2022-08-05T08:41:52.102Z,2.20
2022-08-05T08:45:20.239Z,2.78
2022-08-05T08:47:21.646Z,2.42
2022-08-05T08:50:22.251Z,2.42
2022-08-05T08:52:51.841Z,2.97
2022-08-05T08:55:31.974Z,2.70
2022-08-05T08:58:08.878Z,2.33
2022-08-05T09:00:36.327Z,2.58
2022-08-05T09:03:06.579Z,2.67
2022-08-05T09:05:38.901Z,2.60
2022-08-05T09:08:26.678Z,2.92
2022-08-05T09:10:58.388Z,2.40
2022-08-05T09:13:31.856Z,2.70
2022-08-05T09:16:14.719Z,2.60
2022-08-05T09:18:44.532Z,2.60
2022-08-05T09:21:21.251Z,2.80
2022-08-05T09:24:10.166Z,3.10
2022-08-05T09:26:37.239Z,3.22
2022-08-05T09:29:07.346Z,2.67
2022-08-05T09:32:40.811Z,3.00
2022-08-05T09:34:22.734Z,3.00
2022-08-05T09:36:56.085Z,2.78
2022-08-05T09:39:39.507Z,2.97
2022-08-05T09:42:24.351Z,3.13
2022-08-05T09:44:57.460Z,3.10
2022-08-05T09:47:55.624Z,3.05
2022-08-05T09:50:37.513Z,3.40
2022-08-05T09:53:05.086Z,2.72
2022-08-05T09:55:57.054Z,3.08
2022-08-05T09:58:24.234Z,3.10
2022-08-05T10:01:00.019Z,2.83
2022-08-05T10:03:56.755Z,3.08
2022-08-05T10:06:20.645Z,2.78
2022-08-05T10:08:50.340Z,2.90
2022-08-05T10:11:20.835Z,3.03
2022-08-05T10:13:49.243Z,2.85
2022-08-05T10:16:33.783Z,3.10
2022-08-05T10:19:08.483Z,2.85
2022-08-05T10:21:40.768Z,4.32
2022-08-05T10:24:13.734Z,2.80
2022-08-05T10:26:51.619Z,2.72
2022-08-05T10:29:23.477Z,3.25
2022-08-05T10:32:51.665Z,2.78
2022-08-05T10:35:00.653Z,2.78
2022-08-05T10:37:37.530Z,3.13
2022-08-05T10:40:19.693Z,3.65
2022-08-05T10:42:52.627Z,2.58
2022-08-05T10:45:40.131Z,2.80
2022-08-05T10:48:52.499Z,3.20
2022-08-05T10:51:29.185Z,3.03
2022-08-05T10:54:05.860Z,2.80
2022-08-05T10:56:57.255Z,3.00
2022-08-05T11:00:04.148Z,2.60
2022-08-05T11:02:38.326Z,2.80
2022-08-05T11:05:09.401Z,2.63
2022-08-05T11:08:02.999Z,2.58
2022-08-05T11:10:38.542Z,2.92
2022-08-05T11:13:40.791Z,2.45
2022-08-05T11:16:47.506Z,2.60
2022-08-05T11:20:17.625Z,2.78
2022-08-05T11:22:49.906Z,2.80
2022-08-05T11:26:04.585Z,2.28
2022-08-05T11:28:36.029Z,2.38
2022-08-05T11:31:06.216Z,3.10
2022-08-05T11:33:48.756Z,2.35
2022-08-05T11:36:34.376Z,3.20
2022-08-05T11:39:06.956Z,2.67
2022-08-05T11:42:01.159Z,2.53
2022-08-05T11:44:52.957Z,2.53
2022-08-05T11:47:15.223Z,2.30
2022-08-05T11:49:50.893Z,3.10
2022-08-05T11:52:29.176Z,3.00
2022-08-05T11:54:58.286Z,2.97
2022-08-05T11:58:08.334Z,2.40
2022-08-05T12:00:31.789Z,3.13
2022-08-05T12:03:16.736Z,2.38
2022-08-05T12:05:59.602Z,2.40
2022-08-05T12:08:26.871Z,2.65
2022-08-05T12:10:56.263Z,2.40
2022-08-05T12:13:47.811Z,2.40
2022-08-05T12:16:14.558Z,2.85
2022-08-05T12:18:49.367Z,3.05
2022-08-05T12:21:30.311Z,2.42
2022-08-05T12:24:07.645Z,2.70
2022-08-05T12:26:37.235Z,2.63
2022-08-05T12:29:15.975Z,2.47
2022-08-05T12:32:02.131Z,2.63
2022-08-05T12:34:35.680Z,2.50
2022-08-05T12:37:17.428Z,2.25
2022-08-05T12:39:51.073Z,2.55
2022-08-05T12:42:20.687Z,2.67
2022-08-05T12:44:47.972Z,2.50
2022-08-05T12:47:27.541Z,2.60
2022-08-05T12:50:02.443Z,2.38
2022-08-05T12:52:38.861Z,2.55
2022-08-05T12:55:22.649Z,2.55
2022-08-05T12:58:49.211Z,2.13
2022-08-05T13:02:04.441Z,2.97
2022-08-05T13:03:42.311Z,2.83
2022-08-05T13:06:17.350Z,2.42
2022-08-05T13:08:52.170Z,2.78
2022-08-05T13:11:59.951Z,2.30
2022-08-05T13:14:24.979Z,2.70
2022-08-05T13:17:09.291Z,2.90
2022-08-05T13:19:40.359Z,2.70
2022-08-05T13:22:27.673Z,2.92
2022-08-05T13:24:57.447Z,3.20
2022-08-05T13:27:39.563Z,3.42
2022-08-05T13:30:32.995Z,2.78
2022-08-05T13:32:57.365Z,2.85
2022-08-05T13:35:31.468Z,2.58
2022-08-05T13:38:14.502Z,2.88
2022-08-05T13:40:51.860Z,3.00
2022-08-05T13:43:22.025Z,2.80
2022-08-05T13:45:50.828Z,3.25
2022-08-05T13:48:57.601Z,2.63
2022-08-05T13:51:10.130Z,2.90
2022-08-05T13:53:47.720Z,3.45
2022-08-05T13:56:18.874Z,3.05
2022-08-05T13:58:52.952Z,2.88
2022-08-05T14:01:25.842Z,3.42
2022-08-05T14:04:26.756Z,3.20
2022-08-05T14:06:58.636Z,2.90
2022-08-05T14:09:43.002Z,2.75
2022-08-05T14:12:18.354Z,2.92
2022-08-05T14:15:00.204Z,3.03
2022-08-05T14:17:28.361Z,3.25
2022-08-05T14:20:00.921Z,3.33
2022-08-05T14:22:34.244Z,3.15
2022-08-05T14:25:02.622Z,3.40
2022-08-05T14:27:33.368Z,3.10
2022-08-05T14:30:01.067Z,3.28
2022-08-05T14:32:28.576Z,3.30
2022-08-05T14:34:56.868Z,2.88
2022-08-05T14:37:45.383Z,3.05
2022-08-05T14:40:14.033Z,3.42
2022-08-05T14:42:41.544Z,3.20
2022-08-05T14:45:10.091Z,4.45
2022-08-05T14:48:03.829Z,3.03
2022-08-05T14:50:25.325Z,2.70
2022-08-05T14:52:58.485Z,3.15
2022-08-05T14:55:38.346Z,3.22
2022-08-05T14:58:12.205Z,3.35
2022-08-05T15:00:59.407Z,2.90
2022-08-05T15:03:33.017Z,3.20
2022-08-05T15:06:07.576Z,3.65
2022-08-05T15:08:59.081Z,3.13
2022-08-05T15:11:51.752Z,3.20
2022-08-05T15:14:33.232Z,3.00
2022-08-05T15:17:03.751Z,3.03
2022-08-05T15:19:31.019Z,3.10
2022-08-05T15:22:00.272Z,3.05
2022-08-05T15:24:28.419Z,2.90
2022-08-05T15:26:56.074Z,2.97
2022-08-05T15:29:29.735Z,2.80
2022-08-05T15:32:03.073Z,2.97
2022-08-05T15:34:33.148Z,3.05
2022-08-05T15:37:06.249Z,2.88
2022-08-05T15:41:00.281Z,2.70
2022-08-05T15:42:53.549Z,3.53
2022-08-05T15:45:11.508Z,2.50
2022-08-05T15:47:39.736Z,2.63
2022-08-05T15:50:08.180Z,2.85
2022-08-05T15:52:54.670Z,2.63
2022-08-05T15:55:24.828Z,3.20
2022-08-05T15:57:52.814Z,3.22
2022-08-05T16:00:26.304Z,3.38
2022-08-05T16:02:59.991Z,2.72
2022-08-05T16:05:28.363Z,2.85
2022-08-05T16:07:55.558Z,2.95
2022-08-05T16:10:25.502Z,2.60
2022-08-05T16:12:56.134Z,3.13
2022-08-05T16:15:24.885Z,2.55
2022-08-05T16:17:59.412Z,2.75
2022-08-05T16:20:27.946Z,3.08
2022-08-05T16:22:55.109Z,2.25
2022-08-05T16:25:33.821Z,3.08
2022-08-05T16:28:05.983Z,2.60
2022-08-05T16:30:34.305Z,2.65
2022-08-05T16:33:03.222Z,2.65
2022-08-05T16:35:32.389Z,2.72
2022-08-05T16:38:15.304Z,2.63
2022-08-05T16:40:52.078Z,2.78
2022-08-05T16:43:25.072Z,2.67
2022-08-05T16:46:03.965Z,2.60
2022-08-05T16:48:36.756Z,2.40
2022-08-05T16:51:09.287Z,2.33
2022-08-05T16:54:05.276Z,2.33
2022-08-05T16:56:29.233Z,2.33
2022-08-05T16:58:58.301Z,2.30
2022-08-05T17:01:25.680Z,2.90
2022-08-05T17:03:52.634Z,2.83
2022-08-05T17:06:20.258Z,2.83
2022-08-05T17:08:52.788Z,2.63
2022-08-05T17:11:23.682Z,2.80
2022-08-05T17:14:00.398Z,3.17
2022-08-05T17:16:38.368Z,3.28
2022-08-05T17:19:07.355Z,3.40
2022-08-05T17:21:37.681Z,2.92
2022-08-05T17:24:19.457Z,2.88
2022-08-05T17:26:56.759Z,2.90
2022-08-05T17:29:33.467Z,3.65
2022-08-05T17:32:17.592Z,3.03
2022-08-05T17:34:53.354Z,3.20
2022-08-05T17:37:39.716Z,3.33
2022-08-05T17:40:10.883Z,3.53
2022-08-05T17:42:43.054Z,3.63
2022-08-05T17:45:21.055Z,3.60
2022-08-05T17:47:54.565Z,3.83
2022-08-05T17:50:28.315Z,3.30
2022-08-05T17:53:08.525Z,3.67
2022-08-05T17:55:39.707Z,3.47
2022-08-05T17:58:13.500Z,3.70
2022-08-05T18:00:47.828Z,3.40
2022-08-05T18:06:11.474Z,3.42
2022-08-05T18:08:44.566Z,3.70
2022-08-05T18:11:24.669Z,3.65
2022-08-05T18:14:03.298Z,4.18
2022-08-05T18:16:31.648Z,3.67
2022-08-05T18:18:58.694Z,3.88
2022-08-05T18:21:26.477Z,3.90
2022-08-05T18:23:55.479Z,3.97
2022-08-05T18:26:29.291Z,3.80
2022-08-05T18:28:59.034Z,4.30
2022-08-05T18:31:35.321Z,3.50
2022-08-05T18:34:03.940Z,4.03
2022-08-05T18:36:35.439Z,5.18
2022-08-05T18:39:03.923Z,3.75
2022-08-05T18:41:57.051Z,4.70
2022-08-05T18:44:33.255Z,4.10
2022-08-05T18:47:03.917Z,3.90
2022-08-05T18:49:58.238Z,4.10
2022-08-05T18:52:33.659Z,3.92
2022-08-05T18:55:06.444Z,3.80
2022-08-05T18:57:49.974Z,4.20
2022-08-05T19:00:28.496Z,3.50
2022-08-05T19:02:56.700Z,3.88
2022-08-05T19:06:13.097Z,3.85
2022-08-05T19:08:13.737Z,4.22
2022-08-05T19:10:42.316Z,3.92
2022-08-05T19:13:12.428Z,4.00
2022-08-05T19:15:59.734Z,3.78
2022-08-05T19:18:30.092Z,3.83
2022-08-05T19:20:59.605Z,4.07
2022-08-05T19:24:05.239Z,3.67
2022-08-05T19:26:14.657Z,3.75
2022-08-05T19:28:43.630Z,3.85
2022-08-05T19:31:13.447Z,3.45
2022-08-05T19:33:48.419Z,3.75
2022-08-05T19:36:23.897Z,4.60
2022-08-05T19:38:51.404Z,3.80
2022-08-05T19:41:21.867Z,3.67
2022-08-05T19:44:13.615Z,3.45
2022-08-05T19:46:41.309Z,5.18
2022-08-05T19:49:12.431Z,4.55
2022-08-05T19:52:05.556Z,5.03
2022-08-05T19:54:32.906Z,5.22
2022-08-05T19:57:09.762Z,5.15
2022-08-05T19:59:59.274Z,5.03
2022-08-05T20:02:26.998Z,5.00
2022-08-05T20:04:58.979Z,5.45
2022-08-05T20:07:45.723Z,5.75
2022-08-05T20:10:14.700Z,5.43
2022-08-05T20:12:46.407Z,5.40
2022-08-05T20:15:48.058Z,5.35
2022-08-05T20:18:10.114Z,5.35
2022-08-05T20:20:55.270Z,4.97
2022-08-05T20:23:40.502Z,5.00
2022-08-05T20:26:15.273Z,5.13
2022-08-05T20:28:45.660Z,5.07
2022-08-05T20:31:12.875Z,4.70
2022-08-05T20:33:42.535Z,4.68
2022-08-05T20:36:11.239Z,4.85
2022-08-05T20:38:40.805Z,4.50
2022-08-05T20:41:26.716Z,4.65
2022-08-05T20:44:00.037Z,4.18
2022-08-05T20:46:30.142Z,4.20
2022-08-05T20:48:57.042Z,3.95
2022-08-05T20:51:23.904Z,3.83
2022-08-05T20:53:56.248Z,3.83
2022-08-05T20:56:29.874Z,3.92
2022-08-05T20:59:19.192Z,3.50
2022-08-05T21:01:48.047Z,3.60
2022-08-05T21:04:18.120Z,3.65
2022-08-05T21:06:45.638Z,3.00
2022-08-05T21:09:15.979Z,3.42
2022-08-05T21:12:06.807Z,3.75
2022-08-05T21:14:34.667Z,3.15
2022-08-05T21:17:05.507Z,3.25
2022-08-05T21:19:46.742Z,2.70
2022-08-05T21:22:21.927Z,3.22
2022-08-05T21:24:51.857Z,3.08
2022-08-05T21:27:25.431Z,2.60
2022-08-05T21:29:58.261Z,2.88
2022-08-05T21:32:29.231Z,2.22
2022-08-05T21:35:16.928Z,2.42
2022-08-05T21:37:53.019Z,2.60
2022-08-05T21:40:24.756Z,2.45
2022-08-05T21:42:53.740Z,2.38
2022-08-05T21:45:24.527Z,2.53
2022-08-05T21:47:55.684Z,2.70
2022-08-05T21:50:27.479Z,2.75
2022-08-05T21:53:04.355Z,3.10
2022-08-05T21:56:04.156Z,3.78
2022-08-05T21:58:20.222Z,4.00
2022-08-05T22:00:51.996Z,4.30
2022-08-05T22:03:20.529Z,4.32
2022-08-05T22:06:06.437Z,4.85
2022-08-05T22:08:35.108Z,4.47
2022-08-05T22:11:01.860Z,4.60
2022-08-05T22:14:34.342Z,4.65
2022-08-05T22:16:41.133Z,4.82
2022-08-05T22:19:56.391Z,5.22
2022-08-05T22:21:54.418Z,5.53
2022-08-05T22:24:52.485Z,4.97
2022-08-05T22:28:10.700Z,5.47
2022-08-05T22:30:55.531Z,5.68
2022-08-05T22:33:58.041Z,5.18
2022-08-05T22:36:15.342Z,5.38
2022-08-05T22:38:48.720Z,4.60
2022-08-05T22:41:26.363Z,4.70
2022-08-05T22:44:04.629Z,3.90
2022-08-05T22:46:32.055Z,4.10
2022-08-05T22:48:59.503Z,4.07
2022-08-05T22:52:04.363Z,4.88
2022-08-05T22:54:13.405Z,4.20
2022-08-05T22:56:40.745Z,4.20
2022-08-05T22:59:44.236Z,3.97
2022-08-05T23:02:06.142Z,3.95
2022-08-05T23:04:35.455Z,4.10
2022-08-05T23:07:03.115Z,3.88
2022-08-05T23:09:58.070Z,4.10
2022-08-05T23:12:18.215Z,3.60
2022-08-05T23:14:45.082Z,3.80
2022-08-05T23:17:34.158Z,3.47
2022-08-05T23:20:16.410Z,4.05
2022-08-05T23:22:47.781Z,3.38
2022-08-05T23:25:53.470Z,3.35
2022-08-05T23:28:06.854Z,3.42
2022-08-05T23:30:39.825Z,3.47
2022-08-05T23:33:16.435Z,3.50
2022-08-05T23:35:56.069Z,3.55
2022-08-05T23:38:24.226Z,3.60
2022-08-05T23:40:52.854Z,2.80
2022-08-05T23:43:25.667Z,2.58
2022-08-05T23:46:19.962Z,2.78
2022-08-05T23:49:00.746Z,2.20
2022-08-05T23:51:53.648Z,2.60
2022-08-05T23:54:34.265Z,2.60
2022-08-05T23:57:06.421Z,1.77
